Time;durP1;ratioP1;P1;durP2;ratioP2;P2;SDS_P1;SDS_P2;PMS_P1;PMS_P2;Temp;Humidity;BMP_temperature;BMP_pressure;BME280_temperature;BME280_humidity;BME280_pressure;Samples;Min_cycle;Max_cycle;Signal;HPM_P1;HPM_P2
2022/08/10 05:57:57;;;;;;;;;;;;;;;24.38;41.95;97246.22;4261967;27;10541;-69
2022/08/10 06:00:06;;;;;;;;;;;;;;;24.72;42.03;97244.84;4248269;27;6400;-69
2022/08/10 06:02:35;;;;;;;;;;;;;;;25.04;41.72;97247.25;4229350;27;5338;-68
2022/08/10 06:04:40;;;;;;;;;;;;;;;25.27;41.49;97238.50;4243201;27;5757;-68
2022/08/10 06:06:47;;;;;;;;;;;;;;;25.50;40.83;97240.59;4246910;27;5617;-68
2022/08/10 06:08:53;;;;;;;;;;;;;;;25.70;40.98;97242.38;4237992;27;6177;-68
2022/08/10 06:10:57;;;;;;;;;;;;;;;25.85;40.59;97241.50;4231023;27;5709;-68
2022/08/10 06:16:10;;;;;;;;;;;;;;;26.15;40.27;97247.78;4233666;27;5661;-68
2022/08/10 06:18:14;;;;;;;;;;;;;;;26.21;40.53;97238.56;4240409;27;5757;-68
2022/08/10 06:20:17;;;;;;;;;;;;;;;26.27;40.14;97248.25;4231962;27;5793;-69
2022/08/10 06:22:21;;;;;;;;;;;;;;;26.33;40.47;97247.94;4235231;27;5570;-68
2022/08/10 06:24:25;;;;;;;;;;;;;;;26.41;40.44;97243.84;4244966;27;5902;-69
2022/08/10 06:26:32;;;;;;;;;;;;;;;26.46;40.33;97245.69;4247241;27;5825;-68
2022/08/10 06:28:40;;;;;;;;;;;;;;;26.50;40.08;97247.53;4246658;27;5624;-68
2022/08/10 06:30:46;;;;;;;;;;;;;;;26.54;40.28;97248.63;4239110;27;5650;-68
2022/08/10 06:32:50;;;;;;;;;;;;;;;26.58;40.11;97252.38;4241351;27;5685;-68
2022/08/10 06:34:56;;;;;;;;;;;;;;;26.61;40.13;97251.78;4246836;27;5669;-68
2022/08/10 06:37:02;;;;;;;;;;;;;;;26.63;40.10;97246.91;4247229;27;5642;-68
2022/08/10 06:39:06;;;;;;;;;;;;;;;26.65;40.07;97247.44;4242507;27;5658;-67
2022/08/10 06:41:33;;;;;;;;;;;;;;;26.63;40.32;97241.50;4247582;27;5713;-68
2022/08/10 06:44:03;;;;;;;;;;;;;;;26.66;40.08;97254.47;4230816;27;5801;-68
2022/08/10 06:46:12;;;;;;;;;;;;;;;26.67;40.34;97255.28;4230613;28;5651;-68
2022/08/10 06:48:24;;;;;;;;;;;;;;;26.66;40.17;97251.75;4237108;27;5802;-68
2022/08/10 06:50:35;;;;;;;;;;;;;;;26.66;40.00;97257.19;4247912;27;5662;-66
2022/08/10 06:53:01;;;;;;;;;;;;;;;26.67;40.46;97256.09;4236656;27;5653;-67
2022/08/10 06:55:08;;;;;;;;;;;;;;;26.65;40.21;97255.56;4245303;27;5740;-68
2022/08/10 06:57:14;;;;;;;;;;;;;;;26.59;40.48;97251.25;4242391;27;5807;-68
2022/08/10 06:59:28;;;;;;;;;;;;;;;26.60;40.68;97250.16;4229192;28;5945;-67
2022/08/10 07:01:34;;;;;;;;;;;;;;;26.61;40.30;97243.66;4229660;28;5732;-67
2022/08/10 07:03:44;;;;;;;;;;;;;;;26.65;40.28;97249.34;4235295;28;5660;-67
2022/08/10 07:05:50;;;;;;;;;;;;;;;26.62;40.36;97250.72;4235187;28;5665;-67
2022/08/10 07:07:57;;;;;;;;;;;;;;;26.62;40.23;97250.72;4236320;27;5654;-67
2022/08/10 07:10:01;;;;;;;;;;;;;;;26.63;40.64;97246.09;4234741;28;5869;-67
2022/08/10 07:12:07;;;;;;;;;;;;;;;26.60;40.41;97250.16;4234674;28;5149;-68
2022/08/10 07:14:12;;;;;;;;;;;;;;;26.57;40.40;97247.22;4236168;28;5713;-68
2022/08/10 07:16:21;;;;;;;;;;;;;;;26.55;40.49;97252.94;4235817;28;5725;-68
2022/08/10 07:18:26;;;;;;;;;;;;;;;26.55;40.36;97250.22;4234232;27;5638;-69
2022/08/10 07:20:33;;;;;;;;;;;;;;;26.55;40.79;97249.41;4235832;27;5790;-69
2022/08/10 07:22:39;;;;;;;;;;;;;;;26.55;40.80;97252.13;4236008;28;5642;-68
2022/08/10 07:25:03;;;;;;;;;;;;;;;26.49;40.82;97251.34;4236007;28;5638;-69
2022/08/10 07:27:10;;;;;;;;;;;;;;;26.50;40.85;97255.69;4236021;27;5642;-68
2022/08/10 07:29:14;;;;;;;;;;;;;;;26.52;40.55;97258.94;4235661;27;5645;-67
2022/08/10 07:31:39;;;;;;;;;;;;;;;26.51;40.96;97259.22;4235937;28;5766;-67
2022/08/10 07:34:01;;;;;;;;;;;;;;;26.51;40.58;97257.31;4235553;28;5774;-68
2022/08/10 07:36:06;;;;;;;;;;;;;;;26.50;40.51;97246.75;4235929;28;7650;-68
2022/08/10 07:38:12;;;;;;;;;;;;;;;26.49;40.74;97250.53;4235686;28;5662;-68
2022/08/10 07:40:19;;;;;;;;;;;;;;;26.49;40.67;97256.78;4235790;28;5637;-68
2022/08/10 07:42:24;;;;;;;;;;;;;;;26.50;40.83;97254.88;4235696;28;5805;-68
2022/08/10 07:44:29;;;;;;;;;;;;;;;26.48;40.68;97248.94;4235752;28;5080;-68
2022/08/10 07:46:34;;;;;;;;;;;;;;;26.51;40.49;97260.03;4235342;28;5714;-68
2022/08/10 07:48:44;;;;;;;;;;;;;;;26.51;40.65;97251.91;4235223;28;5659;-68
2022/08/10 07:50:48;;;;;;;;;;;;;;;26.52;40.48;97255.41;4235491;28;5645;-68
2022/08/10 07:52:52;;;;;;;;;;;;;;;26.50;40.66;97255.69;4235631;28;5706;-67
2022/08/10 07:54:57;;;;;;;;;;;;;;;26.48;40.58;97251.63;4235301;28;5713;-68
2022/08/10 07:57:03;;;;;;;;;;;;;;;26.43;40.72;97247.09;4234949;28;5765;-68
2022/08/10 07:59:09;;;;;;;;;;;;;;;26.38;40.85;97263.38;4235230;27;7696;-67
2022/08/10 08:01:14;;;;;;;;;;;;;;;26.36;40.97;97258.22;4235261;27;5705;-68
2022/08/10 08:03:25;;;;;;;;;;;;;;;26.33;41.03;97257.97;4233531;28;5844;-68
2022/08/10 08:05:32;;;;;;;;;;;;;;;26.35;40.78;97262.00;4231425;27;5730;-67
2022/08/10 08:07:57;;;;;;;;;;;;;;;26.32;40.71;97257.16;4218283;28;5687;-68
2022/08/10 08:10:02;;;;;;;;;;;;;;;26.32;41.13;97259.88;4226552;28;5782;-65
2022/08/10 08:12:07;;;;;;;;;;;;;;;26.31;41.00;97252.84;4225535;28;5693;-67
2022/08/10 08:14:13;;;;;;;;;;;;;;;26.29;41.19;97260.44;4226424;28;5736;-67
2022/08/10 08:16:19;;;;;;;;;;;;;;;26.26;40.87;97252.84;4222538;28;6321;-67
2022/08/10 08:18:26;;;;;;;;;;;;;;;26.29;41.27;97257.75;4234586;28;5650;-67
2022/08/10 08:20:32;;;;;;;;;;;;;;;26.34;40.75;97249.56;4235223;28;5761;-67
2022/08/10 08:22:35;;;;;;;;;;;;;;;26.40;41.08;97258.50;4235212;28;5787;-67
2022/08/10 08:25:00;;;;;;;;;;;;;;;26.43;40.76;97254.41;4235082;28;6346;-67
2022/08/10 08:27:04;;;;;;;;;;;;;;;26.45;41.16;97255.72;4235265;28;5650;-67
2022/08/10 08:29:10;;;;;;;;;;;;;;;26.44;41.20;97258.72;4234892;28;5649;-67
2022/08/10 08:31:15;;;;;;;;;;;;;;;26.44;40.90;97253.31;4234651;28;5669;-67
2022/08/10 08:33:18;;;;;;;;;;;;;;;26.43;41.00;97252.50;4234330;28;5662;-67
2022/08/10 08:35:44;;;;;;;;;;;;;;;26.44;40.89;97251.41;4234909;28;5761;-66
2022/08/10 08:37:51;;;;;;;;;;;;;;;26.42;40.90;97248.19;4234829;28;5649;-67
2022/08/10 08:40:21;;;;;;;;;;;;;;;26.41;40.94;97246.56;4234872;28;5662;-67
2022/08/10 08:42:54;;;;;;;;;;;;;;;26.34;40.86;97246.84;4234632;28;5645;-67
2022/08/10 08:45:14;;;;;;;;;;;;;;;26.33;41.06;97242.50;4234439;28;7676;-66
2022/08/10 08:47:40;;;;;;;;;;;;;;;26.32;40.88;97250.94;4234154;28;5076;-66
2022/08/10 08:50:16;;;;;;;;;;;;;;;26.35;41.13;97256.59;4234657;28;5701;-67
2022/08/10 08:52:33;;;;;;;;;;;;;;;26.41;41.07;97251.97;4234433;28;5649;-67
2022/08/10 08:54:53;;;;;;;;;;;;;;;26.46;40.74;97243.78;4234506;28;5721;-67
2022/08/10 08:57:03;;;;;;;;;;;;;;;26.50;40.70;97247.53;4225624;28;5667;-67
2022/08/10 08:59:23;;;;;;;;;;;;;;;26.46;41.10;97246.50;4217523;28;5765;-67
2022/08/10 09:01:48;;;;;;;;;;;;;;;26.42;41.23;97239.25;4217585;28;5703;-67
2022/08/10 09:03:58;;;;;;;;;;;;;;;26.45;41.16;97249.50;4217048;28;5660;-67
2022/08/10 09:06:15;;;;;;;;;;;;;;;26.44;41.02;97243.28;4217229;28;5682;-67
2022/08/10 09:08:50;;;;;;;;;;;;;;;26.48;41.07;97244.31;4217415;28;5687;-67
2022/08/10 09:10:59;;;;;;;;;;;;;;;26.48;40.74;97236.19;4215374;28;5675;-67
2022/08/10 09:13:09;;;;;;;;;;;;;;;26.50;40.77;97231.28;4217226;28;7687;-67
2022/08/10 09:15:21;;;;;;;;;;;;;;;26.52;40.70;97239.16;4217318;28;5746;-66
2022/08/10 09:17:55;;;;;;;;;;;;;;;26.55;40.62;97233.97;4216927;28;5735;-67
2022/08/10 09:20:07;;;;;;;;;;;;;;;26.60;40.76;97242.03;4217187;28;5696;-67
2022/08/10 09:22:16;;;;;;;;;;;;;;;26.58;40.96;97233.38;4215518;28;5715;-67
2022/08/10 09:24:31;;;;;;;;;;;;;;;26.56;40.43;97232.88;4217501;28;5779;-67
2022/08/10 09:26:45;;;;;;;;;;;;;;;26.59;40.76;97229.56;4217192;28;5821;-67
2022/08/10 09:28:52;;;;;;;;;;;;;;;26.64;40.63;97229.53;4217019;28;5715;-67
2022/08/10 09:31:20;;;;;;;;;;;;;;;26.70;40.63;97231.09;4217302;28;5691;-68
2022/08/10 09:33:32;;;;;;;;;;;;;;;26.67;40.61;97228.97;4216752;28;5077;-67
2022/08/10 09:36:11;;;;;;;;;;;;;;;26.73;40.33;97227.03;4223071;22;5973;-76
2022/08/10 09:38:45;;;;;;;;;;;;;;;26.77;40.36;97227.25;4206054;22;5620;-68
2022/08/10 09:40:57;;;;;;;;;;;;;;;26.78;40.36;97226.16;4199764;28;5669;-68
2022/08/10 09:43:14;;;;;;;;;;;;;;;26.77;40.03;97228.06;4200370;28;5674;-68
2022/08/10 09:45:35;;;;;;;;;;;;;;;26.78;40.13;97231.59;4199952;28;5627;-68
2022/08/10 09:47:56;;;;;;;;;;;;;;;26.81;40.00;97223.66;4199898;28;5640;-68
2022/08/10 09:50:17;;;;;;;;;;;;;;;26.85;40.02;97221.22;4200367;28;6308;-68
2022/08/10 09:52:32;;;;;;;;;;;;;;;26.87;39.73;97219.00;4200121;28;6430;-68
2022/08/10 09:54:47;;;;;;;;;;;;;;;26.85;39.74;97215.78;4200082;28;5655;-68
2022/08/10 09:57:01;;;;;;;;;;;;;;;26.85;39.99;97219.31;4196375;28;5722;-68
2022/08/10 09:59:33;;;;;;;;;;;;;;;26.87;39.96;97214.41;4187741;28;5554;-68
2022/08/10 10:02:03;;;;;;;;;;;;;;;26.90;39.52;97208.38;4183233;28;7601;-68
2022/08/10 10:04:15;;;;;;;;;;;;;;;26.93;39.75;97207.00;4165244;28;5665;-68
2022/08/10 10:06:28;;;;;;;;;;;;;;;26.97;39.61;97210.78;4183672;28;5667;-68
2022/08/10 10:08:37;;;;;;;;;;;;;;;27.00;39.61;97212.91;4183452;28;7655;-66
2022/08/10 10:10:57;;;;;;;;;;;;;;;27.04;39.52;97213.97;4183648;28;5613;-67
2022/08/10 10:13:07;;;;;;;;;;;;;;;27.08;39.43;97215.03;4183844;28;5665;-68
2022/08/10 10:15:20;;;;;;;;;;;;;;;27.08;39.48;97215.03;4183787;28;7648;-67
2022/08/10 10:17:40;;;;;;;;;;;;;;;27.12;39.51;97209.81;4182743;28;5689;-67
2022/08/10 10:20:03;;;;;;;;;;;;;;;27.11;39.51;97211.72;4183371;28;5551;-68
2022/08/10 10:22:20;;;;;;;;;;;;;;;27.14;39.11;97213.03;4183248;28;5550;-68
2022/08/10 10:24:35;;;;;;;;;;;;;;;27.12;39.07;97198.97;4183378;28;5784;-68
2022/08/10 10:26:47;;;;;;;;;;;;;;;27.13;39.32;97206.81;4183379;28;5586;-67
2022/08/10 10:29:06;;;;;;;;;;;;;;;27.14;39.20;97200.28;4183648;28;5617;-67
2022/08/10 10:31:34;;;;;;;;;;;;;;;27.19;39.09;97204.84;4165535;28;5673;-68
2022/08/10 10:33:49;;;;;;;;;;;;;;;27.20;39.30;97201.84;4185082;28;5670;-68
2022/08/10 10:35:54;;;;;;;;;;;;;;;27.22;39.41;97202.34;4186515;28;5561;-67
2022/08/10 10:38:01;;;;;;;;;;;;;;;27.22;39.35;97194.22;4183751;28;5654;-67
2022/08/10 10:40:07;;;;;;;;;;;;;;;27.20;39.60;97193.69;4153353;28;5934;-67
2022/08/10 10:42:23;;;;;;;;;;;;;;;27.16;39.59;97195.38;4153478;28;6453;-67
2022/08/10 10:44:56;;;;;;;;;;;;;;;27.16;39.68;97199.97;4153136;28;5762;-67
2022/08/10 10:47:20;;;;;;;;;;;;;;;27.18;39.59;97193.19;4153219;28;5753;-67
2022/08/10 10:49:38;;;;;;;;;;;;;;;27.19;39.78;97183.13;4153239;28;5758;-67
2022/08/10 10:51:48;;;;;;;;;;;;;;;27.19;39.72;97191.28;4153170;28;5837;-67
2022/08/10 10:54:02;;;;;;;;;;;;;;;27.17;39.46;97188.03;4153339;28;5785;-68
2022/08/10 10:56:14;;;;;;;;;;;;;;;27.16;39.66;97194.56;4155319;28;5745;-68
2022/08/10 10:58:25;;;;;;;;;;;;;;;27.20;39.77;97185.56;4153716;28;5763;-68
2022/08/10 11:00:39;;;;;;;;;;;;;;;27.24;39.68;97178.44;4152990;28;5857;-68
2022/08/10 11:02:59;;;;;;;;;;;;;;;27.26;39.53;97183.56;4152630;28;5763;-67
2022/08/10 11:05:15;;;;;;;;;;;;;;;27.29;39.26;97177.56;4152883;28;5758;-67
2022/08/10 11:07:23;;;;;;;;;;;;;;;27.33;39.28;97173.19;4153021;28;5771;-67
2022/08/10 11:09:42;;;;;;;;;;;;;;;27.36;39.26;97174.50;4152728;28;5755;-67
2022/08/10 11:12:18;;;;;;;;;;;;;;;27.39;39.43;97172.00;4153202;28;5837;-67
2022/08/10 11:14:33;;;;;;;;;;;;;;;27.42;39.35;97165.19;4152755;28;5759;-67
2022/08/10 11:16:46;;;;;;;;;;;;;;;27.45;39.42;97175.47;4152338;28;5881;-67
2022/08/10 11:18:57;;;;;;;;;;;;;;;27.48;39.48;97172.16;4152120;28;5754;-67
2022/08/10 11:21:09;;;;;;;;;;;;;;;27.49;39.38;97171.06;4152975;28;5853;-67
2022/08/10 11:23:22;;;;;;;;;;;;;;;27.52;39.55;97167.75;4152695;28;5774;-67
2022/08/10 11:25:30;;;;;;;;;;;;;;;27.53;39.68;97166.69;4152747;28;5770;-67
2022/08/10 11:27:42;;;;;;;;;;;;;;;27.55;39.93;97167.19;4152393;28;5750;-68
2022/08/10 11:29:54;;;;;;;;;;;;;;;27.57;39.90;97167.69;4152608;28;5778;-68
2022/08/10 11:32:04;;;;;;;;;;;;;;;27.59;39.74;97162.78;4152442;28;5776;-67
2022/08/10 11:34:16;;;;;;;;;;;;;;;27.60;39.94;97160.88;4152115;28;5762;-67
2022/08/10 11:36:45;;;;;;;;;;;;;;;27.60;39.85;97166.28;4152606;28;5806;-68
2022/08/10 11:38:54;;;;;;;;;;;;;;;27.62;39.86;97164.09;4177801;28;5839;-67
2022/08/10 11:41:26;;;;;;;;;;;;;;;27.63;39.57;97161.06;4168657;28;5733;-67
2022/08/10 11:43:54;;;;;;;;;;;;;;;27.64;39.37;97164.63;4179849;28;5577;-68
2022/08/10 11:46:07;;;;;;;;;;;;;;;27.65;39.39;97158.94;4183691;28;5629;-68
2022/08/10 11:48:18;;;;;;;;;;;;;;;27.65;39.37;97158.13;4184102;28;5810;-68
2022/08/10 11:50:46;;;;;;;;;;;;;;;27.64;39.44;97156.47;4185115;28;5719;-68
2022/08/10 11:52:56;;;;;;;;;;;;;;;27.62;39.30;97151.31;4185025;28;5723;-67
2022/08/10 11:55:09;;;;;;;;;;;;;;;27.66;39.12;97149.69;4185362;28;5710;-68
2022/08/10 11:57:14;;;;;;;;;;;;;;;27.68;39.06;97147.47;4181253;28;5655;-67
2022/08/10 12:01:46;;;;;;;;;;;;;;;27.70;38.66;97145.25;4185237;28;5727;-68
2022/08/10 12:03:53;;;;;;;;;;;;;;;27.70;38.73;97139.81;4184780;28;5802;-66
2022/08/10 12:05:56;;;;;;;;;;;;;;;27.73;38.68;97144.66;4185184;28;5714;-67
2022/08/10 12:08:01;;;;;;;;;;;;;;;27.74;38.65;97146.28;4184995;28;5781;-66
2022/08/10 12:10:26;;;;;;;;;;;;;;;27.76;38.63;97133.22;4184696;28;5718;-67
2022/08/10 12:12:34;;;;;;;;;;;;;;;27.78;38.29;97135.66;4184821;28;5718;-66
2022/08/10 12:14:55;;;;;;;;;;;;;;;27.78;38.43;97132.94;4181672;28;5795;-67
2022/08/10 12:17:03;;;;;;;;;;;;;;;27.79;38.34;97135.34;4175504;28;5492;-66
2022/08/10 12:19:13;;;;;;;;;;;;;;;27.81;38.33;97124.97;4167168;28;5908;-67
2022/08/10 12:21:21;;;;;;;;;;;;;;;27.82;38.02;97120.34;4167253;28;5731;-67
2022/08/10 12:23:35;;;;;;;;;;;;;;;27.83;38.06;97122.78;4179413;28;5464;-67
2022/08/10 12:25:45;;;;;;;;;;;;;;;27.86;37.98;97124.09;4182840;28;5722;-67
2022/08/10 12:28:09;;;;;;;;;;;;;;;27.88;38.00;97123.81;4182847;28;5947;-67
2022/08/10 12:30:15;;;;;;;;;;;;;;;27.88;37.87;97119.19;4179433;28;5809;-67
2022/08/10 12:32:28;;;;;;;;;;;;;;;27.92;37.83;97114.75;4167174;28;5846;-67
2022/08/10 12:34:39;;;;;;;;;;;;;;;27.96;37.77;97115.78;4174066;28;5756;-67
2022/08/10 12:36:52;;;;;;;;;;;;;;;27.98;37.65;97112.78;4167942;28;5773;-67
2022/08/10 12:39:06;;;;;;;;;;;;;;;27.98;37.71;97107.34;4174946;28;5735;-67
2022/08/10 12:41:18;;;;;;;;;;;;;;;27.99;37.51;97114.41;4199146;28;6435;-68
2022/08/10 12:43:49;;;;;;;;;;;;;;;27.99;37.65;97111.69;4169901;28;5736;-68
2022/08/10 12:46:18;;;;;;;;;;;;;;;27.98;37.73;97107.34;4183378;28;5869;-68
2022/08/10 12:48:30;;;;;;;;;;;;;;;28.01;37.48;97098.59;4195668;28;6294;-68
2022/08/10 12:50:41;;;;;;;;;;;;;;;28.02;37.61;97097.50;4180321;28;5835;-68
2022/08/10 12:52:56;;;;;;;;;;;;;;;28.01;37.62;97096.69;4200734;28;5658;-67
2022/08/10 12:55:09;;;;;;;;;;;;;;;28.03;37.38;97093.66;4198894;28;5992;-68
2022/08/10 12:57:18;;;;;;;;;;;;;;;28.04;37.34;97089.84;4187093;28;5646;-67
2022/08/10 12:59:23;;;;;;;;;;;;;;;28.05;37.62;97091.44;4183343;28;6432;-68
2022/08/10 13:01:29;;;;;;;;;;;;;;;28.05;37.50;97089.53;4183356;28;6150;-68
2022/08/10 13:03:57;;;;;;;;;;;;;;;28.07;37.46;97086.50;4187091;28;5646;-67
2022/08/10 13:06:23;;;;;;;;;;;;;;;28.06;37.33;97093.88;4182946;28;5742;-68
2022/08/10 13:10:53;;;;;;;;;;;;;;;28.05;37.05;97086.81;4182923;28;5825;-68
2022/08/10 13:12:58;;;;;;;;;;;;;;;28.08;37.32;97088.13;4195228;28;5714;-67
2022/08/10 13:15:07;;;;;;;;;;;;;;;28.09;37.23;97087.06;4187619;28;5822;-68
2022/08/10 13:17:32;;;;;;;;;;;;;;;28.12;37.09;97081.81;4191191;28;5746;-68
2022/08/10 13:19:47;;;;;;;;;;;;;;;28.14;37.08;97073.34;4170576;28;6106;-68
2022/08/10 13:22:02;;;;;;;;;;;;;;;28.15;37.07;97069.53;4188975;28;5869;-67
2022/08/10 13:24:11;;;;;;;;;;;;;;;28.16;37.07;97065.69;4172744;28;5703;-67
2022/08/10 13:26:19;;;;;;;;;;;;;;;28.17;37.13;97061.88;4189943;28;5811;-68
2022/08/10 13:28:26;;;;;;;;;;;;;;;28.18;37.12;97060.78;4186584;28;5896;-67
2022/08/10 13:30:45;;;;;;;;;;;;;;;28.20;37.05;97055.03;4188057;28;5708;-70
2022/08/10 13:32:53;;;;;;;;;;;;;;;28.23;37.18;97055.25;4188958;28;5631;-68
2022/08/10 13:35:03;;;;;;;;;;;;;;;28.25;37.09;97050.31;4187668;28;5773;-71
2022/08/10 13:37:10;;;;;;;;;;;;;;;28.27;37.15;97041.84;4190255;28;5093;-70
2022/08/10 13:39:14;;;;;;;;;;;;;;;28.27;36.88;97045.41;4191917;28;5654;-71
2022/08/10 13:41:19;;;;;;;;;;;;;;;28.27;37.16;97034.53;4192322;28;5628;-71
2022/08/10 13:43:24;;;;;;;;;;;;;;;28.28;37.13;97041.59;4194694;28;5722;-71
2022/08/10 13:45:28;;;;;;;;;;;;;;;28.29;36.92;97031.50;4184702;28;5728;-71
2022/08/10 13:47:33;;;;;;;;;;;;;;;28.30;36.94;97033.94;4182269;28;5734;-71
2022/08/10 13:49:56;;;;;;;;;;;;;;;28.32;36.90;97026.31;4196522;28;6366;-71
2022/08/10 13:51:59;;;;;;;;;;;;;;;28.33;37.00;97021.66;4198207;28;5868;-71
2022/08/10 13:54:07;;;;;;;;;;;;;;;28.35;37.06;97014.81;4187694;28;5801;-71
2022/08/10 13:56:14;;;;;;;;;;;;;;;28.36;36.97;97011.00;4184700;28;5758;-71
2022/08/10 13:58:23;;;;;;;;;;;;;;;28.36;36.77;97011.00;4182774;28;5808;-71
2022/08/10 14:00:31;;;;;;;;;;;;;;;28.36;36.89;97005.56;4182460;28;5646;-70
2022/08/10 14:02:42;;;;;;;;;;;;;;;28.37;36.79;97003.63;4194811;28;5718;-70
2022/08/10 14:04:46;;;;;;;;;;;;;;;28.38;36.83;97003.34;4197435;28;5770;-71
2022/08/10 14:06:54;;;;;;;;;;;;;;;28.40;36.84;97001.09;4193478;28;5741;-70
2022/08/10 14:09:00;;;;;;;;;;;;;;;28.41;36.63;97001.91;4185211;28;5676;-71
2022/08/10 14:11:12;;;;;;;;;;;;;;;28.42;36.88;96998.88;4190495;28;5732;-70
2022/08/10 14:13:18;;;;;;;;;;;;;;;28.42;36.58;97003.53;4185996;28;5638;-70
2022/08/10 14:15:29;;;;;;;;;;;;;;;28.41;36.55;96999.19;4168092;28;6660;-71
2022/08/10 14:17:34;;;;;;;;;;;;;;;28.41;36.61;96997.28;4197667;28;5714;-70
2022/08/10 14:19:50;;;;;;;;;;;;;;;28.42;36.52;96996.16;4198306;28;5121;-70
2022/08/10 14:22:02;;;;;;;;;;;;;;;28.43;36.62;96994.28;4201264;28;6304;-70
2022/08/10 14:24:05;;;;;;;;;;;;;;;28.45;36.51;96997.50;4200052;28;5707;-70
2022/08/10 14:26:12;;;;;;;;;;;;;;;28.49;36.37;96989.53;4200245;28;5624;-71
2022/08/10 14:28:20;;;;;;;;;;;;;;;28.52;36.39;96986.19;4188086;28;5676;-73
2022/08/10 14:30:25;;;;;;;;;;;;;;;28.51;36.40;96985.38;4193397;28;5654;-74
2022/08/10 14:32:41;;;;;;;;;;;;;;;28.56;36.26;96984.50;4197284;28;5729;-73
2022/08/10 14:34:48;;;;;;;;;;;;;;;28.55;36.18;96991.06;4187659;28;5760;-76
2022/08/10 14:37:16;;;;;;;;;;;;;;;28.55;36.29;96980.16;4192390;28;7696;-75
2022/08/10 14:39:24;;;;;;;;;;;;;;;28.53;36.18;96975.00;4196034;28;5894;-76
2022/08/10 14:41:32;;;;;;;;;;;;;;;28.52;35.95;96972.59;4200367;28;5655;-76
2022/08/10 14:43:58;;;;;;;;;;;;;;;28.53;35.93;96977.72;4197536;28;5619;-76
2022/08/10 14:46:04;;;;;;;;;;;;;;;28.55;35.98;96983.69;4188752;28;5646;-75
2022/08/10 14:48:13;;;;;;;;;;;;;;;28.53;35.61;96972.28;4193914;28;5646;-75
2022/08/10 14:50:20;;;;;;;;;;;;;;;28.55;35.51;96972.81;4194274;28;5630;-76
2022/08/10 14:52:39;;;;;;;;;;;;;;;28.56;35.65;96970.91;4189600;28;5823;-75
2022/08/10 14:54:50;;;;;;;;;;;;;;;28.56;35.17;96965.47;4185645;28;5657;-74
2022/08/10 14:56:56;;;;;;;;;;;;;;;28.57;35.01;96964.34;4195671;28;5642;-74
2022/08/10 14:59:02;;;;;;;;;;;;;;;28.57;35.36;96967.06;4196134;28;5824;-74
2022/08/10 15:01:11;;;;;;;;;;;;;;;28.56;34.96;96958.09;4192733;28;5693;-74
2022/08/10 15:03:17;;;;;;;;;;;;;;;28.56;34.78;96965.47;4188758;28;6443;-74
2022/08/10 15:05:40;;;;;;;;;;;;;;;28.57;34.92;96957.00;4196736;28;5813;-75
2022/08/10 15:07:46;;;;;;;;;;;;;;;28.57;34.84;96957.00;4202418;28;5714;-75
2022/08/10 15:10:02;;;;;;;;;;;;;;;28.58;34.84;96957.78;4202262;28;5791;-75
2022/08/10 15:12:09;;;;;;;;;;;;;;;28.58;34.84;96957.78;4199837;28;5069;-75
2022/08/10 15:14:18;;;;;;;;;;;;;;;28.59;34.54;96953.97;4199734;28;6249;-75
2022/08/10 15:16:41;;;;;;;;;;;;;;;28.59;34.56;96948.53;4202198;28;5623;-75
2022/08/10 15:18:48;;;;;;;;;;;;;;;28.59;34.60;96954.78;4201489;28;5833;-75
2022/08/10 15:21:02;;;;;;;;;;;;;;;28.59;34.37;96953.97;4196795;28;5835;-74
2022/08/10 15:23:20;;;;;;;;;;;;;;;28.59;34.44;96943.09;4185508;28;5720;-75
2022/08/10 15:25:37;;;;;;;;;;;;;;;28.60;34.49;96939.25;4191763;28;5661;-74
2022/08/10 15:27:45;;;;;;;;;;;;;;;28.63;34.32;96935.91;4188111;28;5122;-73
2022/08/10 15:29:57;;;;;;;;;;;;;;;28.66;34.26;96938.03;4196727;28;5636;-69
2022/08/10 15:39:31;;;;;;;;;;;;;;;28.63;33.69;96944.06;4191977;28;5646;-73
2022/08/10 15:41:56;;;;;;;;;;;;;;;28.61;33.58;96935.41;4199554;28;5715;-70
2022/08/10 15:44:04;;;;;;;;;;;;;;;28.60;33.58;96934.63;4199848;28;5671;-71
2022/08/10 15:46:12;;;;;;;;;;;;;;;28.60;33.53;96929.19;4195516;28;6458;-70
2022/08/10 15:48:18;;;;;;;;;;;;;;;28.61;33.55;96924.53;4195240;28;5643;-70
2022/08/10 15:50:27;;;;;;;;;;;;;;;28.59;33.44;96926.78;4196618;28;5827;-68
2022/08/10 15:52:34;;;;;;;;;;;;;;;28.60;33.46;96925.66;4198071;28;5793;-68
2022/08/10 15:55:06;;;;;;;;;;;;;;;28.60;33.31;96920.22;4191603;28;6396;-68
2022/08/10 15:57:36;;;;;;;;;;;;;;;28.61;33.21;96925.34;4195682;28;5844;-68
2022/08/10 15:59:46;;;;;;;;;;;;;;;28.61;33.23;96919.91;4196034;28;5738;-72
2022/08/10 16:01:55;;;;;;;;;;;;;;;28.65;32.85;96920.09;4197427;28;5635;-72
2022/08/10 16:04:20;;;;;;;;;;;;;;;28.67;33.05;96917.88;4196910;28;5662;-73
2022/08/10 16:06:38;;;;;;;;;;;;;;;28.69;33.01;96921.09;4198205;28;5682;-72
2022/08/10 16:08:46;;;;;;;;;;;;;;;28.68;32.99;96916.78;4195231;28;5622;-72
2022/08/10 16:11:15;;;;;;;;;;;;;;;28.67;32.93;96918.69;4184000;28;6950;-72
2022/08/10 16:13:19;;;;;;;;;;;;;;;28.67;32.68;96926.06;4197068;28;5768;-72
2022/08/10 16:15:52;;;;;;;;;;;;;;;28.66;32.82;96911.66;4187991;28;5738;-71
2022/08/10 16:18:00;;;;;;;;;;;;;;;28.65;32.89;96904.59;4168072;28;5839;-72
2022/08/10 16:20:05;;;;;;;;;;;;;;;28.65;32.82;96914.66;4165813;28;5937;-72
2022/08/10 16:22:10;;;;;;;;;;;;;;;28.63;32.84;96906.81;4183711;28;5625;-73
2022/08/10 16:24:35;;;;;;;;;;;;;;;28.64;32.36;96904.88;4184047;28;5657;-73
2022/08/10 16:26:45;;;;;;;;;;;;;;;28.63;32.61;96906.81;4195899;28;5803;-72
2022/08/10 16:28:51;;;;;;;;;;;;;;;28.62;32.83;96915.28;4196577;28;5775;-73
2022/08/10 16:30:57;;;;;;;;;;;;;;;28.62;32.62;96913.34;4198479;28;5631;-73
2022/08/10 16:33:00;;;;;;;;;;;;;;;28.63;32.76;96911.44;4186064;28;5734;-75
2022/08/10 16:35:11;;;;;;;;;;;;;;;28.63;32.73;96912.25;4195105;28;5547;-72
2022/08/10 16:37:16;;;;;;;;;;;;;;;28.64;32.86;96910.31;4183208;28;5710;-73
2022/08/10 16:39:22;;;;;;;;;;;;;;;28.64;32.74;96908.41;4177647;28;5870;-73
2022/08/10 16:41:47;;;;;;;;;;;;;;;28.64;32.72;96913.03;4195814;28;5635;-73
2022/08/10 16:44:10;;;;;;;;;;;;;;;28.62;32.73;96907.91;4198880;28;5810;-73
2022/08/10 16:46:16;;;;;;;;;;;;;;;28.62;32.79;96918.00;4187013;28;5645;-72
2022/08/10 16:48:22;;;;;;;;;;;;;;;28.62;32.71;96916.06;4197769;28;5715;-73
2022/08/10 16:50:51;;;;;;;;;;;;;;;28.65;32.81;96904.59;4201023;28;5655;-73
2022/08/10 16:52:56;;;;;;;;;;;;;;;28.71;32.60;96908.00;4198104;28;5643;-73
2022/08/10 16:55:03;;;;;;;;;;;;;;;28.85;32.47;96908.75;4187538;28;5162;-73
2022/08/10 16:57:28;;;;;;;;;;;;;;;28.98;32.60;96905.19;4192719;28;5922;-73
2022/08/10 16:59:36;;;;;;;;;;;;;;;29.06;32.59;96897.41;4188393;28;5646;-73
2022/08/10 17:01:41;;;;;;;;;;;;;;;29.08;32.31;96895.19;4195341;28;5681;-73
2022/08/10 17:03:57;;;;;;;;;;;;;;;29.07;32.58;96899.03;4187069;28;5781;-73
2022/08/10 17:06:16;;;;;;;;;;;;;;;29.11;32.53;96895.38;4183112;28;6003;-73
2022/08/10 17:08:22;;;;;;;;;;;;;;;29.21;32.61;96888.84;4184098;28;5729;-74
2022/08/10 17:10:29;;;;;;;;;;;;;;;29.40;32.31;96896.84;4198935;28;6209;-74
2022/08/10 17:12:34;;;;;;;;;;;;;;;29.51;32.24;96898.22;4199382;28;5716;-74
2022/08/10 17:14:39;;;;;;;;;;;;;;;29.58;32.29;96903.22;4195089;28;6578;-74
2022/08/10 17:16:44;;;;;;;;;;;;;;;29.63;32.08;96892.19;4187902;28;5567;-73
2022/08/10 17:18:48;;;;;;;;;;;;;;;29.69;32.02;96893.66;4182967;28;5646;-73
2022/08/10 17:20:51;;;;;;;;;;;;;;;29.75;31.89;96897.84;4195787;28;5668;-74
2022/08/10 17:22:57;;;;;;;;;;;;;;;29.81;31.94;96899.31;4180436;28;5728;-74
2022/08/10 17:25:06;;;;;;;;;;;;;;;29.87;31.78;96900.78;4198304;28;5779;-74
2022/08/10 17:27:12;;;;;;;;;;;;;;;29.95;31.76;96899.22;4199075;28;5642;-74
2022/08/10 17:29:41;;;;;;;;;;;;;;;29.98;31.52;96902.09;4199134;28;5729;-74
2022/08/10 17:32:14;;;;;;;;;;;;;;;30.04;31.34;96894.59;4198337;28;5748;-74
2022/08/10 17:34:21;;;;;;;;;;;;;;;30.04;31.37;96900.84;4174449;28;5740;-74
2022/08/10 17:36:35;;;;;;;;;;;;;;;30.02;31.30;96899.56;4185434;28;5901;-73
2022/08/10 17:38:38;;;;;;;;;;;;;;;30.04;31.43;96895.38;4188445;28;5642;-73
2022/08/10 17:40:47;;;;;;;;;;;;;;;30.05;31.35;96899.72;4186760;28;5757;-73
2022/08/10 17:42:53;;;;;;;;;;;;;;;30.07;31.24;96900.22;4195485;28;5623;-73
2022/08/10 17:44:58;;;;;;;;;;;;;;;30.08;31.30;96907.28;4198781;28;5643;-73
2022/08/10 17:47:03;;;;;;;;;;;;;;;30.05;31.35;96894.28;4198582;28;5658;-72
2022/08/10 17:49:16;;;;;;;;;;;;;;;30.03;31.26;96903.88;4197739;28;5943;-71
2022/08/10 17:51:20;;;;;;;;;;;;;;;30.03;31.33;96915.59;4192012;28;5100;-72